Terminal Aerodrome Forecast
Issued by NWS

Home | Current Version | Previous Version | Text Only | Print | Product List | Glossary On
Versions: 1 2 3 4 5 6 7 8 9 10 11 12 13 14 15 16 17
522
FTUS41 KBTV 042320
TAFMSS
TAF
KMSS 042320Z 0500/0524 00000KT P6SM BKN150
     FM050900 08005KT P6SM -SN OVC090
     FM051000 08005KT 3SM -SN BR OVC045
     FM051100 08006KT 1SM -SN BR OVC020
     FM051800 04004KT 5SM -SN BR OVC015
     FM052000 25004KT P6SM OVC012=

USA.gov is the U.S. government's official web portal to all federal, state and local government web resources and services.